Time;durP1;ratioP1;P1;durP2;ratioP2;P2;SDS_P1;SDS_P2;PMS_P1;PMS_P2;Temp;Humidity;BMP_temperature;BMP_pressure;BME280_temperature;BME280_humidity;BME280_pressure;Samples;Min_cycle;Max_cycle;Signal;HPM_P1;HPM_P2
2023/04/28 00:01:09;;;;;;;9.68;3.97;;;;;;;11.95;39.53;101614.06;4966055;28;99293;-72
2023/04/28 00:03:36;;;;;;;13.57;4.90;;;;;;;11.85;39.40;101601.97;4969273;28;97009;-71
2023/04/28 00:06:03;;;;;;;12.13;3.47;;;;;;;11.91;39.41;101607.97;4968269;28;98477;-71
2023/04/28 00:08:29;;;;;;;11.02;3.50;;;;;;;11.66;40.64;101611.28;4972477;28;99025;-72
2023/04/28 00:10:55;;;;;;;10.57;3.47;;;;;;;11.69;40.11;101604.13;4970849;28;97766;-71
2023/04/28 00:13:25;;;;;;;11.25;3.78;;;;;;;11.73;39.71;101607.56;4961595;28;97678;-72
2023/04/28 00:15:52;;;;;;;11.18;3.58;;;;;;;11.56;39.04;101619.47;4963213;28;97973;-72
2023/04/28 00:18:20;;;;;;;9.73;3.40;;;;;;;11.42;39.13;101612.81;4968856;28;98231;-70
2023/04/28 00:20:46;;;;;;;8.23;3.15;;;;;;;11.47;39.03;101617.06;4965456;28;98868;-70
2023/04/28 00:23:13;;;;;;;6.20;2.80;;;;;;;11.43;37.90;101599.50;4968188;28;96837;-70
2023/04/28 00:25:39;;;;;;;7.93;3.15;;;;;;;11.70;37.52;101597.94;4967104;28;97435;-72
2023/04/28 00:28:06;;;;;;;9.23;3.00;;;;;;;11.70;37.22;101592.63;4964709;28;99962;-72
2023/04/28 00:30:32;;;;;;;6.65;2.55;;;;;;;11.56;36.55;101603.59;4971886;28;98737;-71
2023/04/28 00:32:58;;;;;;;10.07;2.90;;;;;;;11.69;37.00;101600.59;4970320;28;97568;-71
2023/04/28 00:35:26;;;;;;;7.03;2.85;;;;;;;11.76;36.77;101597.78;4969490;28;96832;-71
2023/04/28 00:37:52;;;;;;;9.70;2.83;;;;;;;11.76;36.72;101592.50;4967209;28;98885;-71
2023/04/28 00:40:19;;;;;;;7.38;2.53;;;;;;;11.56;36.84;101593.00;4968750;28;99338;-70
2023/04/28 00:42:46;;;;;;;8.02;2.75;;;;;;;11.88;36.54;101592.16;4969140;28;96867;-71
2023/04/28 00:45:12;;;;;;;6.13;2.35;;;;;;;11.73;37.47;101589.03;4969096;28;97083;-71
2023/04/28 00:47:38;;;;;;;15.40;4.80;;;;;;;11.58;37.93;101591.19;4964033;28;99201;-71
2023/04/28 00:50:06;;;;;;;5.95;3.58;;;;;;;11.57;37.89;101578.84;4969159;28;99372;-70
2023/04/28 00:52:34;;;;;;;7.85;2.63;;;;;;;11.61;37.76;101586.72;4970116;28;96716;-71
2023/04/28 00:55:00;;;;;;;6.80;3.17;;;;;;;11.54;38.34;101575.44;4970764;28;96870;-72
2023/04/28 00:57:27;;;;;;;6.30;3.33;;;;;;;11.46;38.81;101583.56;4971203;28;99338;-70
2023/04/28 00:59:53;;;;;;;7.15;3.05;;;;;;;11.41;39.01;101580.19;4967528;28;98868;-71
2023/04/28 01:02:20;;;;;;;6.30;2.60;;;;;;;11.45;38.77;101573.00;4969205;28;100825;-71
2023/04/28 01:04:46;;;;;;;9.38;3.00;;;;;;;11.51;38.43;101573.72;4966910;28;97967;-71
2023/04/28 01:07:13;;;;;;;7.70;3.00;;;;;;;11.33;39.54;101576.84;4967128;28;99189;-71
2023/04/28 01:09:40;;;;;;;6.40;2.72;;;;;;;11.41;39.30;101579.31;4967388;28;101954;-72
2023/04/28 01:12:07;;;;;;;11.43;2.60;;;;;;;11.41;38.97;101576.66;4966280;28;97055;-71
2023/04/28 01:14:34;;;;;;;7.13;2.28;;;;;;;11.45;39.11;101565.06;4967794;28;97998;-71
2023/04/28 01:17:01;;;;;;;10.80;2.55;;;;;;;11.47;38.85;101569.44;4965758;28;99350;-71
2023/04/28 01:19:28;;;;;;;7.45;2.80;;;;;;;11.50;38.93;101565.81;4966213;28;98860;-70
2023/04/28 01:21:54;;;;;;;6.57;2.42;;;;;;;11.66;38.50;101561.00;4965448;28;97253;-71
2023/04/28 01:24:22;;;;;;;3.75;2.40;;;;;;;11.52;38.95;101559.59;4967127;28;97026;-71
2023/04/28 01:26:49;;;;;;;6.75;2.60;;;;;;;11.57;38.82;101560.31;4966028;28;100980;-72
2023/04/28 01:29:15;;;;;;;7.15;2.30;;;;;;;11.45;39.20;101554.50;4966382;28;97832;-70
2023/04/28 01:31:41;;;;;;;7.78;2.80;;;;;;;11.38;39.38;101551.13;4967020;28;96831;-70
2023/04/28 01:34:08;;;;;;;12.30;2.67;;;;;;;11.21;40.22;101552.50;4966343;28;97103;-70
2023/04/28 01:36:34;;;;;;;5.13;2.58;;;;;;;11.20;40.27;101548.97;4962164;28;99095;-71
2023/04/28 01:39:07;;;;;;;6.50;2.38;;;;;;;11.08;40.75;101557.22;4964599;28;99151;-70
2023/04/28 01:41:34;;;;;;;4.28;2.22;;;;;;;10.88;41.61;101546.25;4967602;28;96714;-70
2023/04/28 01:44:01;;;;;;;9.57;2.80;;;;;;;10.89;41.33;101548.00;4967283;28;97095;-71
2023/04/28 01:46:27;;;;;;;5.88;2.92;;;;;;;10.84;42.28;101547.22;4966550;28;99034;-72
2023/04/28 01:48:54;;;;;;;9.13;3.20;;;;;;;10.85;42.99;101552.47;4967453;28;99630;-71
2023/04/28 01:51:20;;;;;;;5.60;2.78;;;;;;;10.78;43.01;101554.38;4969786;28;97980;-70
2023/04/28 01:53:47;;;;;;;5.88;2.83;;;;;;;10.89;43.17;101550.63;4959753;28;98042;-70
2023/04/28 01:56:13;;;;;;;11.68;2.70;;;;;;;10.61;43.18;101537.19;4967704;28;101873;-70
2023/04/28 01:58:41;;;;;;;9.57;2.60;;;;;;;10.69;43.92;101538.75;4966932;28;99242;-70
2023/04/28 02:01:07;;;;;;;9.32;2.80;;;;;;;10.60;43.23;101541.59;4967303;28;96865;-69
2023/04/28 02:03:33;;;;;;;7.68;2.85;;;;;;;10.70;42.82;101532.53;4966171;28;96913;-69
2023/04/28 02:06:00;;;;;;;9.52;3.25;;;;;;;10.83;42.32;101534.94;4972559;28;97740;-70
2023/04/28 02:08:26;;;;;;;6.20;3.28;;;;;;;10.77;42.34;101538.56;4964076;28;98782;-70
2023/04/28 02:10:52;;;;;;;4.25;2.50;;;;;;;10.92;41.88;101534.69;4962489;28;97110;-71
2023/04/28 02:13:19;;;;;;;9.40;3.15;;;;;;;11.09;41.22;101533.34;4968668;28;97065;-70
2023/04/28 02:15:46;;;;;;;10.07;3.35;;;;;;;11.03;41.36;101532.63;4959020;28;99231;-70
2023/04/28 02:18:13;;;;;;;7.05;3.05;;;;;;;11.24;40.93;101542.69;4966160;28;98883;-70
2023/04/28 02:20:39;;;;;;;14.80;4.00;;;;;;;11.11;41.43;101535.97;4972038;28;96931;-71
2023/04/28 02:23:06;;;;;;;8.57;4.13;;;;;;;11.01;41.28;101534.47;4970471;28;96857;-69
2023/04/28 02:25:32;;;;;;;12.50;4.45;;;;;;;11.04;41.25;101537.03;4972421;28;99129;-70
2023/04/28 02:27:58;;;;;;;7.35;3.38;;;;;;;11.06;41.86;101532.56;4963880;28;99482;-70
2023/04/28 02:30:25;;;;;;;10.85;4.25;;;;;;;11.09;42.20;101529.88;4967647;28;97637;-71
2023/04/28 02:32:53;;;;;;;12.60;4.35;;;;;;;11.04;42.51;101529.09;4965639;28;97803;-70
2023/04/28 02:35:19;;;;;;;7.15;3.83;;;;;;;11.02;42.54;101528.28;4963750;28;98994;-70
2023/04/28 02:37:45;;;;;;;7.38;3.70;;;;;;;10.98;42.24;101524.81;4966525;28;99472;-70
2023/04/28 02:40:12;;;;;;;12.73;3.78;;;;;;;11.06;42.72;101527.28;4974121;28;100160;-71
2023/04/28 02:42:39;;;;;;;8.20;4.03;;;;;;;10.92;42.52;101522.34;4963997;28;96817;-71
2023/04/28 02:45:07;;;;;;;11.20;3.55;;;;;;;10.91;42.42;101527.66;4964677;28;99165;-70
2023/04/28 02:47:33;;;;;;;11.23;3.45;;;;;;;10.76;42.51;101519.19;4959504;28;98742;-70
2023/04/28 02:50:01;;;;;;;8.43;3.63;;;;;;;11.01;42.99;101516.81;4965165;28;96854;-69
2023/04/28 02:52:27;;;;;;;9.93;3.97;;;;;;;11.02;42.99;101518.56;4962638;28;96804;-71
2023/04/28 02:54:56;;;;;;;10.27;4.40;;;;;;;10.87;43.60;101515.41;4967283;28;99181;-69
2023/04/28 02:57:22;;;;;;;12.02;4.30;;;;;;;11.07;42.62;101521.97;4964428;28;98842;-70
2023/04/28 02:59:49;;;;;;;9.20;4.03;;;;;;;11.02;43.61;101513.28;4967608;28;97618;-70
2023/04/28 03:02:19;;;;;;;6.82;4.22;;;;;;;11.21;42.65;101518.97;4967109;28;96804;-72
2023/04/28 03:04:45;;;;;;;10.18;3.95;;;;;;;11.27;42.37;101507.34;4964977;28;102479;-70
2023/04/28 03:07:13;;;;;;;8.65;3.25;;;;;;;11.30;41.93;101509.91;4965283;28;98922;-71
2023/04/28 03:09:39;;;;;;;7.30;3.70;;;;;;;11.09;42.72;101514.00;4971282;28;96843;-71
2023/04/28 03:12:06;;;;;;;6.63;3.50;;;;;;;11.08;42.24;101506.97;4969417;28;97721;-72
2023/04/28 03:14:32;;;;;;;5.57;3.28;;;;;;;11.20;42.63;101501.34;4966074;28;99561;-71
2023/04/28 03:16:59;;;;;;;10.52;4.20;;;;;;;11.47;41.60;101503.28;4957849;28;99400;-71
2023/04/28 03:19:27;;;;;;;12.75;4.28;;;;;;;11.64;41.41;101494.84;4968116;28;96980;-71
2023/04/28 03:21:53;;;;;;;8.57;3.75;;;;;;;11.80;40.73;101497.97;4970315;28;96738;-71
2023/04/28 03:24:21;;;;;;;7.82;3.70;;;;;;;11.86;40.85;101498.66;4964422;28;98967;-71
2023/04/28 03:26:47;;;;;;;11.30;3.80;;;;;;;11.89;41.21;101503.84;4972893;28;97867;-71
2023/04/28 03:29:13;;;;;;;7.53;3.72;;;;;;;12.01;40.40;101494.72;4966393;28;97317;-70
2023/04/28 03:31:40;;;;;;;8.93;3.95;;;;;;;11.97;40.69;101496.56;4969475;28;96894;-70
2023/04/28 03:34:06;;;;;;;9.43;3.85;;;;;;;12.00;40.31;101489.47;4968978;28;98929;-71
2023/04/28 03:36:33;;;;;;;10.20;3.53;;;;;;;11.71;40.49;101484.94;4969633;28;101215;-71
2023/04/28 03:38:59;;;;;;;5.25;3.42;;;;;;;12.04;40.19;101491.09;4968986;28;96863;-71
2023/04/28 03:41:27;;;;;;;8.30;3.50;;;;;;;11.72;40.71;101489.34;4969505;28;97357;-70
2023/04/28 03:43:55;;;;;;;7.88;3.65;;;;;;;11.77;41.11;101490.97;4961027;28;98958;-71
2023/04/28 03:46:21;;;;;;;6.80;3.53;;;;;;;11.81;40.77;101489.13;4973367;28;98833;-71
2023/04/28 03:48:48;;;;;;;9.52;3.70;;;;;;;11.81;40.39;101484.69;4967142;28;96826;-70
2023/04/28 03:51:14;;;;;;;9.75;3.60;;;;;;;11.80;40.47;101487.38;4968833;28;97287;-71
2023/04/28 03:53:41;;;;;;;6.38;3.80;;;;;;;11.83;40.63;101481.97;4969767;28;99110;-71
2023/04/28 03:56:07;;;;;;;14.00;3.97;;;;;;;11.70;40.46;101480.56;4964183;28;98868;-71
2023/04/28 03:58:35;;;;;;;8.20;3.75;;;;;;;11.58;40.79;101479.13;4969604;28;99243;-71
2023/04/28 04:01:01;;;;;;;8.35;3.47;;;;;;;11.70;40.67;101480.56;4970153;28;96812;-71
2023/04/28 04:03:28;;;;;;;12.57;3.65;;;;;;;11.81;40.44;101475.88;4973031;28;98930;-71
2023/04/28 04:05:54;;;;;;;15.55;4.38;;;;;;;11.69;40.86;101469.09;4973911;28;98817;-70
2023/04/28 04:08:21;;;;;;;8.00;3.58;;;;;;;11.97;40.07;101470.09;4967823;28;96996;-71
2023/04/28 04:10:47;;;;;;;9.43;3.28;;;;;;;11.78;40.40;101474.19;4968949;28;96910;-71
2023/04/28 04:13:14;;;;;;;8.52;3.50;;;;;;;11.65;40.59;101469.25;4966652;28;98928;-72
2023/04/28 04:15:41;;;;;;;6.32;3.40;;;;;;;11.67;40.27;101470.09;4965887;28;99607;-72
2023/04/28 04:18:07;;;;;;;9.15;3.30;;;;;;;11.83;39.97;101469.63;4964870;28;97167;-71
2023/04/28 04:20:34;;;;;;;10.38;3.50;;;;;;;11.88;40.10;101466.84;4968231;28;97023;-71
2023/04/28 04:23:00;;;;;;;6.25;3.50;;;;;;;11.80;40.27;101471.50;4963931;28;99290;-71
2023/04/28 04:25:27;;;;;;;10.13;3.83;;;;;;;11.96;40.30;101470.13;4973725;28;98808;-72
2023/04/28 04:27:53;;;;;;;8.05;3.38;;;;;;;11.89;40.04;101472.09;4969855;28;99464;-72
2023/04/28 04:30:20;;;;;;;6.93;3.28;;;;;;;12.18;39.83;101473.00;4965622;28;96957;-71
2023/04/28 04:32:47;;;;;;;6.38;4.40;;;;;;;12.16;39.58;101464.22;4964627;28;99352;-72
2023/04/28 04:35:14;;;;;;;12.80;3.92;;;;;;;12.27;39.29;101460.31;4968243;28;98755;-71
2023/04/28 04:37:41;;;;;;;11.73;3.67;;;;;;;12.48;38.86;101461.44;4964238;28;101237;-72
2023/04/28 04:40:08;;;;;;;7.88;3.85;;;;;;;12.34;39.14;101453.03;4964141;28;98794;-70
2023/04/28 04:42:34;;;;;;;10.63;3.58;;;;;;;12.24;39.20;101451.63;4969035;28;98295;-71
2023/04/28 04:45:01;;;;;;;10.88;3.42;;;;;;;12.57;38.91;101453.19;4963773;28;98926;-71
2023/04/28 04:47:27;;;;;;;7.68;3.70;;;;;;;12.46;38.96;101452.69;4966353;28;98557;-71
2023/04/28 04:49:55;;;;;;;9.25;3.70;;;;;;;12.62;38.82;101456.56;4960562;28;96917;-71
2023/04/28 04:52:21;;;;;;;9.32;4.10;;;;;;;12.69;38.48;101454.56;4972304;28;98948;-71
2023/04/28 04:54:47;;;;;;;7.82;3.85;;;;;;;12.56;38.93;101461.19;4967965;28;98784;-72
2023/04/28 04:57:14;;;;;;;7.20;3.70;;;;;;;12.49;39.08;101455.22;4967475;28;97594;-71
2023/04/28 04:59:40;;;;;;;13.20;3.92;;;;;;;12.68;38.62;101455.47;4961421;28;96887;-70
2023/04/28 05:02:07;;;;;;;10.20;3.72;;;;;;;12.62;38.60;101443.28;4961378;28;101472;-71
2023/04/28 05:04:33;;;;;;;12.85;3.65;;;;;;;12.44;38.30;101440.38;4965580;28;99135;-70
2023/04/28 05:07:01;;;;;;;9.48;3.17;;;;;;;12.56;38.64;101445.28;4972241;28;96842;-70
2023/04/28 05:09:28;;;;;;;11.35;4.20;;;;;;;12.78;38.48;101439.22;4962987;28;97421;-71
2023/04/28 05:11:55;;;;;;;7.68;3.20;;;;;;;12.58;38.29;101446.09;4958426;28;99515;-70
2023/04/28 05:14:21;;;;;;;11.00;3.35;;;;;;;12.70;38.39;101441.25;4964526;28;100591;-69
2023/04/28 05:16:47;;;;;;;9.43;3.30;;;;;;;12.81;38.10;101437.38;4964922;28;97134;-71
2023/04/28 05:19:14;;;;;;;5.80;3.50;;;;;;;12.76;38.23;101434.88;4962219;28;97365;-70
2023/04/28 05:21:40;;;;;;;8.68;3.50;;;;;;;13.32;37.30;101432.09;4960783;28;98900;-71
2023/04/28 05:24:08;;;;;;;7.55;3.42;;;;;;;13.18;36.90;101437.03;4965089;28;98950;-70
2023/04/28 05:26:37;;;;;;;8.23;3.35;;;;;;;13.31;36.83;101427.72;4963898;28;97877;-71
2023/04/28 05:29:04;;;;;;;10.60;3.05;;;;;;;13.38;36.83;101419.47;4962008;28;98339;-71
2023/04/28 05:31:30;;;;;;;8.80;3.60;;;;;;;13.36;36.49;101423.09;4964438;28;100804;-70
2023/04/28 05:33:57;;;;;;;9.20;4.10;;;;;;;13.52;36.17;101419.81;4966861;28;98058;-72
2023/04/28 05:36:24;;;;;;;6.53;3.30;;;;;;;13.69;36.12;101419.19;4968432;28;97236;-72
2023/04/28 05:38:51;;;;;;;12.35;4.05;;;;;;;13.82;35.83;101414.28;4960497;28;96790;-72
2023/04/28 05:41:18;;;;;;;8.63;3.60;;;;;;;13.85;35.55;101414.16;4968311;28;100226;-71
2023/04/28 05:43:46;;;;;;;15.52;4.88;;;;;;;13.92;35.66;101413.84;4969431;28;99901;-70
2023/04/28 05:46:13;;;;;;;10.38;4.63;;;;;;;13.89;35.35;101410.47;4967501;28;97292;-71
2023/04/28 05:48:39;;;;;;;13.70;4.22;;;;;;;14.17;35.36;101413.78;4967996;28;97505;-71
2023/04/28 05:51:06;;;;;;;13.05;4.38;;;;;;;14.18;34.83;101417.28;4974078;28;98331;-72
2023/04/28 05:53:32;;;;;;;7.90;4.25;;;;;;;14.17;34.96;101408.47;4967510;28;97881;-70
2023/04/28 05:55:58;;;;;;;13.77;3.33;;;;;;;14.24;34.96;101401.13;4968561;28;97539;-71
2023/04/28 05:58:26;;;;;;;12.00;4.13;;;;;;;14.29;35.07;101394.69;4968398;28;97341;-71
2023/04/28 06:00:53;;;;;;;8.93;3.47;;;;;;;14.33;34.66;101395.41;4961193;28;98937;-71
2023/04/28 06:03:20;;;;;;;11.93;3.40;;;;;;;14.25;34.71;101395.72;4964549;28;100293;-71
2023/04/28 06:05:46;;;;;;;13.73;4.13;;;;;;;14.53;34.39;101398.16;4972808;28;97694;-71
2023/04/28 06:08:12;;;;;;;14.43;3.67;;;;;;;14.67;34.34;101392.25;4968662;28;96876;-71
2023/04/28 06:10:39;;;;;;;14.55;3.35;;;;;;;15.11;33.64;101388.53;4960216;28;98183;-74
2023/04/28 06:13:05;;;;;;;13.65;4.22;;;;;;;15.24;33.29;101390.66;4968567;28;99240;-72
2023/04/28 06:15:33;;;;;;;8.40;3.50;;;;;;;15.37;33.11;101387.38;4962130;28;97422;-72
2023/04/28 06:18:00;;;;;;;10.98;3.35;;;;;;;15.15;33.06;101391.94;4960126;28;97921;-73
2023/04/28 06:20:26;;;;;;;11.07;3.80;;;;;;;15.95;32.00;101382.03;4967248;28;98083;-72
2023/04/28 06:22:53;;;;;;;39.10;5.47;;;;;;;16.24;31.77;101385.97;4975433;28;100669;-73
2023/04/28 06:25:20;;;;;;;20.15;4.60;;;;;;;16.47;31.21;101377.72;4968109;28;96845;-73
2023/04/28 06:27:47;;;;;;;14.05;3.65;;;;;;;16.40;31.07;101375.44;4971948;28;96812;-72
2023/04/28 06:30:18;;;;;;;7.13;3.47;;;;;;;16.35;31.10;101375.63;4972671;28;98321;-73
2023/04/28 06:32:45;;;;;;;11.43;3.80;;;;;;;16.59;30.62;101368.22;4968776;28;98818;-72
2023/04/28 06:35:12;;;;;;;8.60;3.40;;;;;;;16.26;31.00;101368.97;4962349;28;97481;-73
2023/04/28 06:37:38;;;;;;;22.95;4.43;;;;;;;16.26;31.03;101368.97;4963528;28;97832;-72
2023/04/28 06:40:06;;;;;;;9.75;3.33;;;;;;;16.02;31.07;101366.59;4960758;28;99702;-73
2023/04/28 06:42:33;;;;;;;12.65;3.67;;;;;;;16.29;30.99;101363.47;4966400;28;99601;-73
2023/04/28 06:44:59;;;;;;;5.70;3.75;;;;;;;16.10;30.65;101370.63;4967870;28;96745;-73
2023/04/28 06:47:26;;;;;;;11.38;4.20;;;;;;;16.30;30.66;101367.88;4969313;28;96929;-72
2023/04/28 06:49:54;;;;;;;13.77;4.05;;;;;;;16.44;30.61;101360.97;4968599;28;101289;-72
2023/04/28 06:52:21;;;;;;;8.65;4.25;;;;;;;16.53;30.55;101356.06;4972896;28;98879;-72
2023/04/28 06:54:48;;;;;;;10.13;3.72;;;;;;;16.43;30.48;101357.44;4974995;28;97292;-73
2023/04/28 06:57:14;;;;;;;19.08;4.43;;;;;;;16.69;29.73;101345.50;4970036;28;96804;-73
2023/04/28 06:59:42;;;;;;;8.63;3.40;;;;;;;16.57;29.72;101352.28;4965756;28;102333;-73
2023/04/28 07:02:09;;;;;;;8.90;3.80;;;;;;;16.65;29.74;101350.13;4964379;28;99419;-73
2023/04/28 07:04:36;;;;;;;9.43;4.72;;;;;;;16.73;29.88;101347.94;4960607;28;98553;-72
2023/04/28 07:07:06;;;;;;;19.25;4.57;;;;;;;16.97;29.50;101345.78;4972142;28;97388;-72
2023/04/28 07:09:33;;;;;;;9.85;3.58;;;;;;;17.05;29.21;101345.41;4966809;28;98341;-73
2023/04/28 07:11:59;;;;;;;7.18;3.05;;;;;;;17.18;29.19;101333.13;4963004;28;98819;-72
2023/04/28 07:14:26;;;;;;;11.93;3.63;;;;;;;16.78;28.92;101328.16;4965406;28;97023;-72
2023/04/28 07:16:52;;;;;;;12.05;3.60;;;;;;;16.72;29.19;101332.00;4969587;28;97173;-71
2023/04/28 07:19:19;;;;;;;8.43;2.88;;;;;;;16.91;28.99;101329.22;4966340;28;101192;-72
2023/04/28 07:21:45;;;;;;;9.02;3.65;;;;;;;17.32;28.16;101330.56;4968324;28;100107;-72
2023/04/28 07:24:13;;;;;;;5.88;3.50;;;;;;;17.50;27.58;101326.03;4972124;28;98011;-72
2023/04/28 07:26:40;;;;;;;6.47;3.00;;;;;;;17.62;27.67;101321.84;4967607;28;97472;-73
2023/04/28 07:29:07;;;;;;;8.10;2.90;;;;;;;17.99;27.10;101316.13;4966971;28;98736;-72
2023/04/28 07:31:34;;;;;;;16.80;2.80;;;;;;;18.04;26.78;101308.72;4963118;28;99290;-72
2023/04/28 07:34:00;;;;;;;7.15;3.05;;;;;;;18.33;26.52;101317.72;4961180;28;98045;-72
2023/04/28 07:36:27;;;;;;;13.23;3.10;;;;;;;18.98;25.94;101302.22;4963698;28;99237;-73
2023/04/28 07:38:54;;;;;;;8.90;2.90;;;;;;;18.74;26.08;101309.06;4968645;28;98229;-72
2023/04/28 07:41:22;;;;;;;7.25;2.85;;;;;;;18.54;26.21;101303.06;4966477;28;100070;-72
2023/04/28 07:43:49;;;;;;;11.30;3.13;;;;;;;18.39;26.42;101301.31;4966828;28;99952;-72
2023/04/28 07:46:15;;;;;;;11.88;2.90;;;;;;;18.74;26.60;101299.22;4959817;28;97462;-71
2023/04/28 07:48:41;;;;;;;6.65;2.58;;;;;;;18.34;26.93;101300.72;4967530;28;98940;-71
2023/04/28 07:51:08;;;;;;;6.88;3.05;;;;;;;18.32;27.15;101289.22;4960939;28;98804;-71
2023/04/28 07:53:34;;;;;;;8.52;3.25;;;;;;;18.49;26.46;101283.75;4965097;28;98685;-72
2023/04/28 07:56:01;;;;;;;26.35;3.88;;;;;;;18.55;26.42;101288.78;4959001;28;97273;-72
2023/04/28 07:58:28;;;;;;;14.00;3.83;;;;;;;18.89;26.24;101292.09;4961475;28;99517;-73
2023/04/28 08:00:55;;;;;;;9.32;3.90;;;;;;;18.55;26.21;101286.09;4958605;28;98792;-72
2023/04/28 08:03:21;;;;;;;20.88;4.20;;;;;;;18.75;26.16;101284.91;4953119;28;102439;-72
2023/04/28 08:05:48;;;;;;;9.27;3.25;;;;;;;18.80;26.14;101281.94;4963693;28;98471;-73
2023/04/28 08:08:14;;;;;;;12.30;3.78;;;;;;;18.84;25.98;101280.81;4965779;28;99717;-73
2023/04/28 08:10:42;;;;;;;6.93;3.42;;;;;;;18.81;26.08;101275.63;4959578;28;98961;-73
2023/04/28 08:13:08;;;;;;;11.32;3.40;;;;;;;18.83;26.12;101281.75;4961492;28;97880;-73
2023/04/28 08:15:42;;;;;;;16.60;3.67;;;;;;;18.73;26.08;101293.97;4961191;28;97223;-71
2023/04/28 08:18:08;;;;;;;12.20;3.25;;;;;;;19.01;26.26;101291.31;4960782;28;99173;-72
2023/04/28 08:20:35;;;;;;;8.95;3.40;;;;;;;18.90;26.16;101283.09;4961069;28;98818;-73
2023/04/28 08:23:01;;;;;;;13.93;3.30;;;;;;;18.86;26.10;101278.88;4964809;28;97644;-72
2023/04/28 08:25:28;;;;;;;14.05;3.83;;;;;;;19.14;26.09;101276.22;4962306;28;98294;-71
2023/04/28 08:27:55;;;;;;;14.65;4.03;;;;;;;19.26;25.98;101271.91;4962781;28;98876;-72
2023/04/28 08:30:21;;;;;;;18.50;3.78;;;;;;;19.37;25.75;101272.06;4963428;28;98989;-71
2023/04/28 08:32:49;;;;;;;25.50;3.90;;;;;;;19.35;25.67;101271.31;4965603;28;98069;-72
2023/04/28 08:35:16;;;;;;;19.50;3.95;;;;;;;19.58;25.38;101273.41;4965638;28;97218;-72
2023/04/28 08:37:43;;;;;;;6.90;2.90;;;;;;;19.19;26.55;101268.75;4966562;28;99172;-72
2023/04/28 08:40:10;;;;;;;9.02;3.08;;;;;;;19.20;26.58;101265.13;4961279;28;98726;-73
2023/04/28 08:42:37;;;;;;;11.30;4.35;;;;;;;19.27;26.15;101265.59;4963620;28;97009;-73
2023/04/28 08:45:04;;;;;;;14.40;3.88;;;;;;;18.96;26.67;101258.63;4965201;28;96902;-72
2023/04/28 08:47:34;;;;;;;42.15;5.50;;;;;;;18.94;26.49;101257.84;4963083;28;98244;-72
2023/04/28 08:50:05;;;;;;;12.60;3.88;;;;;;;19.08;26.50;101250.69;4957481;28;102403;-72
2023/04/28 08:52:31;;;;;;;22.30;4.53;;;;;;;19.42;26.11;101252.09;4962425;28;96956;-72
2023/04/28 08:54:58;;;;;;;12.77;4.10;;;;;;;19.78;25.45;101256.03;4965631;28;97403;-73
2023/04/28 08:57:27;;;;;;;17.10;4.28;;;;;;;19.83;25.52;101253.91;4956658;28;99323;-73
2023/04/28 08:59:53;;;;;;;15.80;3.75;;;;;;;19.89;25.34;101248.13;4962329;28;98773;-73
2023/04/28 09:02:20;;;;;;;22.85;4.32;;;;;;;19.97;25.35;101240.44;4962624;28;96955;-73
2023/04/28 09:04:47;;;;;;;19.92;3.70;;;;;;;20.31;24.74;101233.66;4961639;28;97016;-74
2023/04/28 09:07:15;;;;;;;15.18;4.03;;;;;;;19.76;25.02;101231.13;4970557;28;99346;-73
2023/04/28 09:09:41;;;;;;;9.73;3.53;;;;;;;19.98;25.04;101236.78;4960166;28;98830;-73
2023/04/28 09:12:08;;;;;;;25.90;4.43;;;;;;;20.02;25.00;101227.56;4965990;28;97355;-73
2023/04/28 09:14:36;;;;;;;16.38;4.10;;;;;;;20.18;24.86;101222.91;4958941;28;96967;-73
2023/04/28 09:17:09;;;;;;;34.28;5.35;;;;;;;20.18;24.42;101216.66;4964991;28;99431;-72
2023/04/28 09:19:36;;;;;;;14.90;3.55;;;;;;;20.43;24.26;101211.38;4965422;28;101707;-73
2023/04/28 09:22:04;;;;;;;21.13;5.05;;;;;;;20.29;24.27;101208.75;4966543;28;97540;-72
2023/04/28 09:24:34;;;;;;;20.95;5.57;;;;;;;20.56;24.51;101203.31;4970561;28;97048;-72
2023/04/28 09:27:02;;;;;;;12.35;3.92;;;;;;;20.41;24.46;101199.03;4964926;28;101750;-72
2023/04/28 09:29:28;;;;;;;10.68;3.95;;;;;;;20.59;24.37;101198.63;4955106;28;99450;-72
2023/04/28 09:32:01;;;;;;;10.32;3.90;;;;;;;20.32;24.70;101203.19;4961128;28;98389;-72
2023/04/28 09:34:44;;;;;;;16.55;4.32;;;;;;;20.46;24.50;101196.88;4969372;28;98209;-73
2023/04/28 09:37:15;;;;;;;9.95;3.92;;;;;;;20.78;23.94;101200.84;4958293;28;99370;-72
2023/04/28 09:39:43;;;;;;;10.60;4.25;;;;;;;20.89;24.24;101200.09;4959787;28;98027;-73
2023/04/28 09:42:09;;;;;;;15.63;4.47;;;;;;;21.03;24.06;101192.75;4965234;28;98082;-71
2023/04/28 09:44:36;;;;;;;10.43;4.55;;;;;;;21.11;23.98;101192.22;4963285;28;97121;-73
2023/04/28 09:47:21;;;;;;;13.23;4.38;;;;;;;20.96;24.08;101185.25;4962781;28;99272;-73
2023/04/28 09:49:54;;;;;;;17.52;4.32;;;;;;;21.04;23.73;101177.50;4952898;28;98943;-73
2023/04/28 09:52:21;;;;;;;12.50;4.78;;;;;;;21.24;23.64;101174.25;4957514;28;97494;-73
2023/04/28 09:54:50;;;;;;;13.35;4.82;;;;;;;21.05;23.92;101177.41;4966024;28;97065;-73
2023/04/28 09:57:18;;;;;;;12.63;4.38;;;;;;;20.99;24.04;101180.53;4960236;28;99480;-72
2023/04/28 09:59:48;;;;;;;14.00;3.97;;;;;;;21.06;24.09;101175.56;4959481;28;99150;-72
2023/04/28 10:02:15;;;;;;;10.18;4.95;;;;;;;21.35;23.91;101168.94;4966453;28;98540;-72
2023/04/28 10:04:44;;;;;;;13.85;4.53;;;;;;;21.57;23.75;101168.22;4961496;28;96913;-72
2023/04/28 10:07:11;;;;;;;16.08;4.28;;;;;;;21.60;23.65;101167.13;4965557;28;99215;-72
2023/04/28 10:09:38;;;;;;;14.20;5.00;;;;;;;21.62;23.86;101168.72;4957225;28;99115;-72
2023/04/28 10:12:07;;;;;;;14.52;4.30;;;;;;;21.83;22.97;101164.44;4964460;28;98180;-73
2023/04/28 10:14:34;;;;;;;18.80;5.07;;;;;;;21.69;23.42;101161.91;4959753;28;97637;-73
2023/04/28 10:17:02;;;;;;;12.05;4.22;;;;;;;21.56;23.50;101158.44;4964954;28;98970;-72
2023/04/28 10:19:28;;;;;;;12.80;4.03;;;;;;;21.63;23.55;101151.63;4962679;28;100637;-72
2023/04/28 10:22:06;;;;;;;10.48;4.22;;;;;;;21.57;23.74;101146.72;4973803;28;97019;-73
2023/04/28 10:24:33;;;;;;;11.65;4.18;;;;;;;21.68;23.75;101143.19;4968704;28;96719;-73
2023/04/28 10:27:07;;;;;;;13.93;4.95;;;;;;;21.36;23.88;101149.16;4973084;28;98969;-74
2023/04/28 10:29:34;;;;;;;8.15;4.00;;;;;;;21.58;23.77;101131.44;4963093;28;98166;-74
2023/04/28 10:32:22;;;;;;;17.02;4.57;;;;;;;21.79;23.65;101122.56;4964324;28;97312;-73
2023/04/28 10:34:48;;;;;;;11.98;4.68;;;;;;;21.48;24.00;101131.25;4969261;28;97197;-73
2023/04/28 10:37:17;;;;;;;21.85;3.90;;;;;;;21.85;23.83;101130.22;4968164;28;97882;-74
2023/04/28 10:40:28;;;;;;;7.68;4.60;;;;;;;21.43;23.67;101128.06;4972385;28;99346;-74
2023/04/28 10:42:56;;;;;;;9.23;3.92;;;;;;;21.23;24.28;101126.84;4899898;28;98708;-75
2023/04/28 10:46:00;;;;;;;12.18;4.43;;;;;;;21.76;23.80;101122.81;4946351;28;98460;-76
2023/04/28 10:48:52;;;;;;;7.00;3.92;;;;;;;22.09;23.03;101110.47;4958424;28;99304;-76
2023/04/28 10:51:29;;;;;;;10.88;4.07;;;;;;;22.12;23.36;101104.88;4971260;28;101613;-78
2023/04/28 10:54:18;;;;;;;22.92;3.88;;;;;;;22.38;23.16;101109.06;4965249;28;97672;-77
2023/04/28 10:57:16;;;;;;;11.05;3.92;;;;;;;21.98;23.06;101108.63;4964186;28;97706;-76
2023/04/28 10:59:44;;;;;;;11.40;4.07;;;;;;;21.97;23.77;101101.53;4962717;28;97667;-75
2023/04/28 11:02:39;;;;;;;8.85;4.65;;;;;;;22.04;23.28;101107.28;4970071;28;99195;-76
2023/04/28 11:05:13;;;;;;;14.38;4.15;;;;;;;22.04;23.43;101093.84;4969303;28;98014;-77
2023/04/28 11:07:40;;;;;;;13.43;4.47;;;;;;;22.48;22.98;101101.09;4975017;28;99878;-75
2023/04/28 11:10:07;;;;;;;10.23;3.90;;;;;;;22.50;22.96;101094.63;4965679;28;98902;-76
2023/04/28 11:12:34;;;;;;;19.73;4.63;;;;;;;22.69;22.96;101095.84;4975029;28;98928;-76
2023/04/28 11:15:13;;;;;;;10.30;3.78;;;;;;;22.69;23.04;101087.75;4974203;28;97429;-78
2023/04/28 11:17:40;;;;;;;9.18;3.80;;;;;;;22.60;22.91;101086.66;4966852;28;97044;-76
2023/04/28 11:20:12;;;;;;;9.13;3.72;;;;;;;22.63;22.94;101091.81;4965051;28;98969;-79
2023/04/28 11:22:39;;;;;;;9.80;3.92;;;;;;;22.77;22.81;101085.34;4968355;28;102131;-76